Hakusei Maru No.25 — JK5629 — position and weather

sailwx.info

Track history (hours):
 
Tides and Currents Weather Stations Pressure Air Temp Water Temp Dewpoint Dewpoint Depression Visibility Wind Speed Wind Dir Waves Ship Positions

Hakusei Maru No.25

Last reported at 2017-Oct-02 10:01 UTC. Time now 2017-Oct-18 01:49 UTC.
Position N 34°36' E 134°55'.
Warning: this ship's position is 15 days out of date.

Length 68 m; draft 4.5 m.

Type: Tanker. MMSI: 431401954.

Date/timePositionNaut miles runAvg speedWind from/ knotsBaromVisibWave heightAir tempDewpointWater temp
2017-Oct-02 10:01N 34°36' E 134°55'114.0
2017-Oct-02 09:56N 34°37' E 134°56'613.5
2017-Oct-02 09:30N 34°36' E 135°03'612.4
2017-Oct-02 08:59N 34°35' E 135°11'612.0
2017-Oct-02 08:30N 34°34' E 135°18'611.7
2017-Oct-02 08:00N 34°33' E 135°24'1 3.0
2017-Oct-02 07:31N 34°33' E 135°26'0 0.0
2017-Oct-02 03:00N 34°33' E 135°26'3 5.9
2017-Oct-02 02:30N 34°33' E 135°23'4 1.1
2017-Oct-01 23:14N 34°33' E 135°18'0 0.0
2017-Oct-01 22:56N 34°33' E 135°18'0 0.0
2017-Oct-01 22:26N 34°33' E 135°18'0 0.0
2017-Oct-01 21:32N 34°33' E 135°18'0 0.0
2017-Oct-01 20:44N 34°33' E 135°18'0 0.0
2017-Oct-01 19:38N 34°33' E 135°18'0 0.0
2017-Oct-01 19:26N 34°33' E 135°18'0 0.0
2017-Oct-01 18:56N 34°33' E 135°18'0 0.0
2017-Oct-01 18:26N 34°33' E 135°18'0 0.0
2017-Oct-01 17:56N 34°33' E 135°18'0 0.0
2017-Oct-01 17:26N 34°33' E 135°18'0 0.0
2017-Oct-01 16:08N 34°33' E 135°18'0 0.0
2017-Oct-01 15:56N 34°33' E 135°18'0 0.0
2017-Oct-01 15:26N 34°33' E 135°18'0 0.0
2017-Oct-01 14:56N 34°33' E 135°18'0 0.0
2017-Oct-01 14:26N 34°33' E 135°18'0 0.0
2017-Oct-01 13:56N 34°33' E 135°18'0 0.0
2017-Oct-01 12:56N 34°33' E 135°18'0 0.0
2017-Oct-01 12:26N 34°33' E 135°18'0 0.0
2017-Oct-01 11:56N 34°33' E 135°18'2 5.1
2017-Oct-01 11:30N 34°33' E 135°16'612.0
2017-Oct-01 11:01N 34°34' E 135°09'611.4
2017-Oct-01 10:31N 34°36' E 135°02'  
Track history (hours):
 
Tides and Currents Weather Stations Pressure Air Temp Water Temp Dewpoint Dewpoint Depression Visibility Wind Speed Wind Dir Waves Ship Positions

Hakusei Maru No.25

Last reported at 2017-Oct-02 10:01 UTC. Time now 2017-Oct-18 01:49 UTC.
Position N 34°36' E 134°55'.
Warning: this ship's position is 15 days out of date.

Length 68 m; draft 4.5 m.

Type: Tanker. MMSI: 431401954.

Date/timePositionNaut miles runAvg speedWind from/ knotsBaromVisibWave heightAir tempDewpointWater temp
2017-Oct-02 10:01N 34°36' E 134°55'114.0
2017-Oct-02 09:56N 34°37' E 134°56'613.5
2017-Oct-02 09:30N 34°36' E 135°03'612.4
2017-Oct-02 08:59N 34°35' E 135°11'612.0
2017-Oct-02 08:30N 34°34' E 135°18'611.7
2017-Oct-02 08:00N 34°33' E 135°24'1 3.0
2017-Oct-02 07:31N 34°33' E 135°26'0 0.0
2017-Oct-02 03:00N 34°33' E 135°26'3 5.9
2017-Oct-02 02:30N 34°33' E 135°23'4 1.1
2017-Oct-01 23:14N 34°33' E 135°18'0 0.0
2017-Oct-01 22:56N 34°33' E 135°18'0 0.0
2017-Oct-01 22:26N 34°33' E 135°18'0 0.0
2017-Oct-01 21:32N 34°33' E 135°18'0 0.0
2017-Oct-01 20:44N 34°33' E 135°18'0 0.0
2017-Oct-01 19:38N 34°33' E 135°18'0 0.0
2017-Oct-01 19:26N 34°33' E 135°18'0 0.0
2017-Oct-01 18:56N 34°33' E 135°18'0 0.0
2017-Oct-01 18:26N 34°33' E 135°18'0 0.0
2017-Oct-01 17:56N 34°33' E 135°18'0 0.0
2017-Oct-01 17:26N 34°33' E 135°18'0 0.0
2017-Oct-01 16:08N 34°33' E 135°18'0 0.0
2017-Oct-01 15:56N 34°33' E 135°18'0 0.0
2017-Oct-01 15:26N 34°33' E 135°18'0 0.0
2017-Oct-01 14:56N 34°33' E 135°18'0 0.0
2017-Oct-01 14:26N 34°33' E 135°18'0 0.0
2017-Oct-01 13:56N 34°33' E 135°18'0 0.0
2017-Oct-01 12:56N 34°33' E 135°18'0 0.0
2017-Oct-01 12:26N 34°33' E 135°18'0 0.0
2017-Oct-01 11:56N 34°33' E 135°18'2 5.1
2017-Oct-01 11:30N 34°33' E 135°16'612.0
2017-Oct-01 11:01N 34°34' E 135°09'611.4
2017-Oct-01 10:31N 34°36' E 135°02'  

Dump ship's entire track history